Time;durP1;ratioP1;P1;durP2;ratioP2;P2;SDS_P1;SDS_P2;PMS_P1;PMS_P2;Temp;Humidity;BMP_temperature;BMP_pressure;BME280_temperature;BME280_humidity;BME280_pressure;Samples;Min_cycle;Max_cycle;Signal;HPM_P1;HPM_P2
2023/05/17 00:02:02;;;;;;;19.52;3.58;;;9.40;99.90;;;;;;5044331;28;20581;-81
2023/05/17 00:04:27;;;;;;;17.35;3.40;;;9.50;99.90;;;;;;5046751;28;20080;-81
2023/05/17 00:06:53;;;;;;;19.45;3.45;;;9.30;99.90;;;;;;5045131;28;20119;-81
2023/05/17 00:09:19;;;;;;;18.45;3.20;;;9.40;99.90;;;;;;5027122;28;20064;-81
2023/05/17 00:11:44;;;;;;;15.85;2.85;;;9.30;99.90;;;;;;5021748;28;20041;-81
2023/05/17 00:14:10;;;;;;;15.15;2.55;;;9.20;99.90;;;;;;5043339;28;20040;-81
2023/05/17 00:16:37;;;;;;;17.77;3.25;;;9.20;99.90;;;;;;5042056;28;20081;-81
2023/05/17 00:19:02;;;;;;;21.13;3.22;;;9.20;99.90;;;;;;5027491;28;20057;-80
2023/05/17 00:21:28;;;;;;;17.00;2.28;;;9.20;99.90;;;;;;5045971;28;20502;-81
2023/05/17 00:23:54;;;;;;;17.73;2.97;;;9.10;99.90;;;;;;5058591;28;20084;-81
2023/05/17 00:26:20;;;;;;;20.30;2.72;;;9.10;99.90;;;;;;5042269;28;20056;-81
2023/05/17 00:28:46;;;;;;;18.50;2.92;;;9.10;99.90;;;;;;5043717;28;20056;-81
2023/05/17 00:31:12;;;;;;;15.25;3.13;;;9.40;99.90;;;;;;5045509;28;20067;-81
2023/05/17 00:33:38;;;;;;;19.50;3.10;;;9.30;99.90;;;;;;5026858;28;20485;-81
2023/05/17 00:36:04;;;;;;;14.15;2.85;;;9.80;99.90;;;;;;5045837;28;20044;-81
2023/05/17 00:38:30;;;;;;;23.48;4.05;;;9.10;99.90;;;;;;5043217;28;20037;-81
2023/05/17 00:40:55;;;;;;;24.63;3.60;;;9.10;99.90;;;;;;5024832;28;20393;-81
2023/05/17 00:43:21;;;;;;;19.80;3.20;;;9.10;99.90;;;;;;5026551;28;20621;-81
2023/05/17 00:45:49;;;;;;;18.48;3.60;;;9.10;99.90;;;;;;5027635;28;20130;-81
2023/05/17 00:48:14;;;;;;;17.77;3.60;;;9.40;99.90;;;;;;5044316;28;20405;-81
2023/05/17 00:50:41;;;;;;;22.83;3.20;;;9.10;99.90;;;;;;5043963;28;20288;-81
2023/05/17 00:53:07;;;;;;;20.95;3.65;;;9.80;99.90;;;;;;5044506;28;20049;-81
2023/05/17 00:55:33;;;;;;;23.92;2.95;;;9.70;99.90;;;;;;5043882;28;20052;-80
2023/05/17 00:57:59;;;;;;;26.33;3.72;;;9.00;99.90;;;;;;5046279;28;20044;-81
2023/05/17 01:00:25;;;;;;;22.17;3.28;;;9.00;99.90;;;;;;5043513;28;20123;-81
2023/05/17 01:02:51;;;;;;;21.42;3.00;;;9.00;99.90;;;;;;5042905;28;20055;-80
2023/05/17 01:05:17;;;;;;;24.92;2.88;;;9.00;99.90;;;;;;5044061;28;20033;-82
2023/05/17 01:07:43;;;;;;;18.17;3.05;;;9.00;99.90;;;;;;5043329;28;20044;-82
2023/05/17 01:10:12;;;;;;;23.25;3.28;;;9.00;99.90;;;;;;5039697;28;20058;-82
2023/05/17 01:13:02;;;;;;;22.23;2.70;;;9.00;99.90;;;;;;5029379;28;20048;-82
2023/05/17 01:15:32;;;;;;;19.08;3.20;;;8.90;99.90;;;;;;5054364;28;20158;-81
2023/05/17 01:18:11;;;;;;;17.98;3.05;;;8.90;99.90;;;;;;5055056;28;20045;-81
2023/05/17 01:20:40;;;;;;;20.75;2.70;;;8.90;99.90;;;;;;5057785;28;20052;-81
2023/05/17 01:23:44;;;;;;;18.50;2.78;;;8.90;99.90;;;;;;5059256;28;20749;-82
2023/05/17 01:26:15;;;;;;;20.98;2.50;;;8.90;99.90;;;;;;5055925;28;20048;-81
2023/05/17 01:28:44;;;;;;;15.95;2.63;;;8.90;99.90;;;;;;5035097;28;20064;-81
2023/05/17 01:31:10;;;;;;;19.08;2.33;;;8.90;99.90;;;;;;5032562;28;20044;-81
2023/05/17 01:33:38;;;;;;;21.42;3.42;;;9.30;99.90;;;;;;5051345;28;20075;-81
2023/05/17 01:36:04;;;;;;;25.60;4.03;;;8.90;99.90;;;;;;5049705;28;20205;-81
2023/05/17 01:38:30;;;;;;;16.42;3.15;;;8.90;99.90;;;;;;5048994;28;20049;-81
2023/05/17 01:41:04;;;;;;;22.60;3.50;;;8.80;99.90;;;;;;5033866;28;20406;-80
2023/05/17 01:43:40;;;;;;;17.73;2.95;;;8.90;99.90;;;;;;5049997;28;20490;-81
2023/05/17 01:46:31;;;;;;;16.90;3.08;;;9.10;99.90;;;;;;5041752;28;20211;-81
2023/05/17 01:49:20;;;;;;;17.65;2.50;;;8.80;99.90;;;;;;5047465;28;20109;-82
2023/05/17 01:52:08;;;;;;;15.40;2.22;;;9.10;99.90;;;;;;5047776;28;20077;-81
2023/05/17 01:55:01;;;;;;;20.52;2.65;;;8.80;99.90;;;;;;5032801;28;20335;-81
2023/05/17 01:57:31;;;;;;;16.83;3.20;;;8.80;99.90;;;;;;5034575;28;20045;-81
2023/05/17 02:00:01;;;;;;;16.17;2.40;;;8.80;99.90;;;;;;5042280;28;20072;-81
2023/05/17 02:02:27;;;;;;;14.48;2.83;;;8.80;99.90;;;;;;5047131;28;20056;-81
2023/05/17 02:04:53;;;;;;;16.85;2.20;;;8.70;99.90;;;;;;5030202;28;20052;-81
2023/05/17 02:07:19;;;;;;;16.38;2.75;;;8.70;99.90;;;;;;5048620;28;20463;-81
2023/05/17 02:09:45;;;;;;;15.38;2.47;;;8.80;99.90;;;;;;5047593;28;20087;-81
2023/05/17 02:12:10;;;;;;;12.02;1.98;;;8.70;99.90;;;;;;5048962;28;20047;-81
2023/05/17 02:14:36;;;;;;;15.77;2.08;;;8.70;99.90;;;;;;5029982;28;20792;-81
2023/05/17 02:17:05;;;;;;;18.85;2.55;;;8.60;99.90;;;;;;5047439;28;20049;-81
2023/05/17 02:19:31;;;;;;;18.77;2.17;;;8.60;99.90;;;;;;5047414;28;20195;-82
2023/05/17 02:21:57;;;;;;;9.75;1.95;;;8.60;99.90;;;;;;5049300;28;20106;-81
2023/05/17 02:24:22;;;;;;;18.05;1.98;;;8.60;99.90;;;;;;5029702;28;20071;-81
2023/05/17 02:26:48;;;;;;;13.13;2.00;;;8.60;99.90;;;;;;5038986;28;20515;-81
2023/05/17 02:29:17;;;;;;;16.30;1.88;;;8.60;99.90;;;;;;5046902;28;20136;-81
2023/05/17 02:31:43;;;;;;;11.70;1.52;;;9.00;99.90;;;;;;5030256;28;20048;-82
2023/05/17 02:34:08;;;;;;;12.57;2.13;;;8.60;99.90;;;;;;5047208;28;20045;-80
2023/05/17 02:36:34;;;;;;;15.77;2.40;;;8.60;99.90;;;;;;5029940;28;20082;-82
2023/05/17 02:39:00;;;;;;;12.55;2.63;;;8.50;99.90;;;;;;5046687;28;20178;-81
2023/05/17 02:41:25;;;;;;;22.10;2.28;;;9.00;99.90;;;;;;5046272;28;20099;-82
2023/05/17 02:43:51;;;;;;;16.88;2.33;;;8.50;99.90;;;;;;5047335;28;20041;-81
2023/05/17 02:46:17;;;;;;;23.65;2.58;;;8.50;99.90;;;;;;5047950;28;20465;-82
2023/05/17 02:48:42;;;;;;;15.00;2.22;;;8.40;99.90;;;;;;5047006;28;20037;-81
2023/05/17 02:51:08;;;;;;;17.08;2.22;;;8.40;99.90;;;;;;5047612;28;20136;-84
2023/05/17 02:53:34;;;;;;;18.25;1.95;;;8.40;99.90;;;;;;5047625;28;20041;-82
2023/05/17 02:56:00;;;;;;;19.30;2.08;;;8.40;99.90;;;;;;5047435;28;20127;-81
2023/05/17 02:58:26;;;;;;;23.88;2.83;;;8.40;99.90;;;;;;5029266;28;20072;-82
2023/05/17 03:00:52;;;;;;;17.85;2.72;;;8.40;99.90;;;;;;5047827;28;20048;-81
2023/05/17 03:03:18;;;;;;;15.68;3.05;;;8.60;99.90;;;;;;5031169;28;20076;-83
2023/05/17 03:05:46;;;;;;;17.05;2.03;;;8.40;99.90;;;;;;5029170;28;20506;-82
2023/05/17 03:08:12;;;;;;;15.77;2.00;;;8.10;99.90;;;;;;5047253;28;20044;-82
2023/05/17 03:10:37;;;;;;;18.10;2.60;;;8.70;99.90;;;;;;5049031;28;20091;-80
2023/05/17 03:13:03;;;;;;;16.63;3.33;;;8.60;99.90;;;;;;5049120;28;20820;-82
2023/05/17 03:15:28;;;;;;;15.85;2.20;;;8.30;99.90;;;;;;5029827;28;20049;-82
2023/05/17 03:17:58;;;;;;;16.95;1.90;;;8.30;99.90;;;;;;5060278;28;20120;-82
2023/05/17 03:20:24;;;;;;;14.57;2.30;;;9.20;99.90;;;;;;5060527;28;20413;-82
2023/05/17 03:22:49;;;;;;;16.00;1.75;;;8.20;99.90;;;;;;5061544;28;20036;-82
2023/05/17 03:25:15;;;;;;;21.75;2.60;;;8.20;99.90;;;;;;5043568;28;20044;-82
2023/05/17 03:27:41;;;;;;;16.88;1.95;;;8.20;99.90;;;;;;5065711;28;20095;-82
2023/05/17 03:30:07;;;;;;;16.08;2.22;;;8.20;99.90;;;;;;5047306;28;20041;-82
2023/05/17 03:32:33;;;;;;;9.85;1.50;;;8.20;99.90;;;;;;5029240;28;20139;-81
2023/05/17 03:34:58;;;;;;;9.75;1.45;;;8.20;99.90;;;;;;5045140;28;20557;-82
2023/05/17 03:37:25;;;;;;;13.60;2.78;;;8.80;99.90;;;;;;5045897;28;20163;-82
2023/05/17 03:39:51;;;;;;;14.68;1.60;;;8.20;99.90;;;;;;5030909;28;20048;-87
2023/05/17 03:42:16;;;;;;;12.40;2.10;;;8.30;99.90;;;;;;5046866;28;20453;-87
2023/05/17 03:44:42;;;;;;;13.68;2.40;;;8.50;99.90;;;;;;5030729;28;20049;-87
2023/05/17 03:47:08;;;;;;;8.52;1.60;;;8.10;99.90;;;;;;5051840;28;20059;-86
2023/05/17 03:49:33;;;;;;;14.43;2.08;;;8.20;99.90;;;;;;5065281;28;20071;-86
2023/05/17 03:51:59;;;;;;;7.68;1.60;;;8.10;99.90;;;;;;5061295;28;20592;-85
2023/05/17 03:54:25;;;;;;;8.60;1.63;;;8.10;99.90;;;;;;5047178;28;20489;-88
2023/05/17 03:56:50;;;;;;;11.70;1.95;;;8.10;99.90;;;;;;5035413;28;20143;-87
2023/05/17 03:59:16;;;;;;;11.27;1.73;;;8.10;99.90;;;;;;5038107;28;20046;-89
2023/05/17 04:01:44;;;;;;;8.98;1.75;;;8.60;99.90;;;;;;5040299;28;20459;-88
2023/05/17 04:04:10;;;;;;;15.13;2.20;;;8.00;99.90;;;;;;5027276;28;20037;-87
2023/05/17 04:06:36;;;;;;;9.77;1.60;;;9.00;99.90;;;;;;5023493;28;20056;-87
2023/05/17 04:09:02;;;;;;;15.02;2.33;;;8.00;99.90;;;;;;5024841;28;20048;-88
2023/05/17 04:11:27;;;;;;;11.02;1.65;;;8.00;99.90;;;;;;5040044;28;20088;-88
2023/05/17 04:13:55;;;;;;;14.23;1.30;;;8.00;99.90;;;;;;5024786;28;20065;-87
2023/05/17 04:16:21;;;;;;;10.05;1.50;;;8.00;99.90;;;;;;5028841;28;20512;-88
2023/05/17 04:18:51;;;;;;;15.30;1.60;;;8.00;99.90;;;;;;5029545;28;20041;-88
2023/05/17 04:21:17;;;;;;;10.05;1.35;;;8.00;99.90;;;;;;5046834;28;20547;-89
2023/05/17 04:23:46;;;;;;;9.55;1.38;;;8.00;99.90;;;;;;5028523;28;20068;-87
2023/05/17 04:26:12;;;;;;;9.23;1.40;;;8.00;99.90;;;;;;5056175;28;20516;-87
2023/05/17 04:28:37;;;;;;;19.45;2.42;;;8.00;99.90;;;;;;5031830;28;20052;-87
2023/05/17 04:31:08;;;;;;;11.85;1.77;;;7.90;99.90;;;;;;5027896;28;20051;-88
2023/05/17 04:33:34;;;;;;;9.60;1.40;;;8.30;99.90;;;;;;5043577;28;20056;-87
2023/05/17 04:36:00;;;;;;;10.45;1.70;;;8.00;99.90;;;;;;5047171;28;20049;-88
2023/05/17 04:38:25;;;;;;;12.10;1.40;;;8.40;99.90;;;;;;5043624;28;20037;-88
2023/05/17 04:40:51;;;;;;;16.50;1.30;;;8.70;99.90;;;;;;5041743;28;20079;-88
2023/05/17 04:43:17;;;;;;;16.02;2.00;;;8.00;99.90;;;;;;5028841;28;20051;-88
2023/05/17 04:45:43;;;;;;;10.00;1.38;;;8.20;99.90;;;;;;5044921;28;20103;-88
2023/05/17 04:48:10;;;;;;;12.48;1.52;;;8.00;99.90;;;;;;5043930;28;20045;-88
2023/05/17 04:50:35;;;;;;;11.63;1.80;;;8.40;99.90;;;;;;5045947;28;20045;-86
2023/05/17 04:53:01;;;;;;;11.18;2.22;;;8.00;99.90;;;;;;5042560;28;20051;-88
2023/05/17 04:55:27;;;;;;;10.20;1.35;;;8.00;99.90;;;;;;5045233;28;20037;-86
2023/05/17 04:57:52;;;;;;;15.30;1.70;;;8.00;99.90;;;;;;5044637;28;20098;-88
2023/05/17 05:00:19;;;;;;;12.18;1.70;;;8.00;99.90;;;;;;5045316;28;20079;-86
2023/05/17 05:02:45;;;;;;;12.45;1.85;;;8.10;99.90;;;;;;5047366;28;20418;-87
2023/05/17 05:05:11;;;;;;;12.00;1.48;;;8.20;99.90;;;;;;5066968;28;20045;-88
2023/05/17 05:07:38;;;;;;;10.98;1.27;;;8.40;99.90;;;;;;5068587;28;20119;-87
2023/05/17 05:10:06;;;;;;;10.65;1.92;;;8.40;99.90;;;;;;5025445;28;20049;-87
2023/05/17 05:12:32;;;;;;;10.90;1.63;;;8.40;99.90;;;;;;5029903;28;20040;-87
2023/05/17 05:14:58;;;;;;;13.85;1.55;;;8.40;99.90;;;;;;5043372;28;20531;-88
2023/05/17 05:17:23;;;;;;;11.50;1.58;;;8.40;99.90;;;;;;5046451;28;20073;-88
2023/05/17 05:19:49;;;;;;;7.88;1.63;;;8.30;99.90;;;;;;5028744;28;20041;-88
2023/05/17 05:22:15;;;;;;;12.65;1.80;;;8.40;99.90;;;;;;5057637;28;20045;-88
2023/05/17 05:24:40;;;;;;;10.13;1.50;;;8.70;99.90;;;;;;5024418;28;20135;-87
2023/05/17 05:27:09;;;;;;;13.50;1.23;;;8.40;99.90;;;;;;5039183;28;20053;-87
2023/05/17 05:29:35;;;;;;;14.00;1.67;;;8.30;99.90;;;;;;5050233;28;20060;-89
2023/05/17 05:32:01;;;;;;;14.18;2.10;;;8.40;99.90;;;;;;5035319;28;20045;-87
2023/05/17 05:34:28;;;;;;;12.98;1.70;;;9.10;99.90;;;;;;5034913;28;20064;-89
2023/05/17 05:36:54;;;;;;;13.07;1.98;;;8.40;99.90;;;;;;5033901;28;20057;-89
2023/05/17 05:39:20;;;;;;;13.75;2.10;;;8.40;99.90;;;;;;5033957;28;20508;-87
2023/05/17 05:41:46;;;;;;;8.82;1.52;;;8.40;99.90;;;;;;5055627;28;20044;-88
2023/05/17 05:44:12;;;;;;;14.75;1.48;;;8.40;99.90;;;;;;5041057;28;20095;-89
2023/05/17 05:46:40;;;;;;;9.60;1.80;;;9.00;99.90;;;;;;5036825;28;20052;-89
2023/05/17 05:49:06;;;;;;;16.75;1.77;;;8.40;99.90;;;;;;5036906;28;20355;-88
2023/05/17 05:51:32;;;;;;;17.33;2.58;;;7.60;99.90;;;;;;5037075;28;20033;-88
2023/05/17 05:53:58;;;;;;;11.45;1.73;;;8.40;99.90;;;;;;5021959;28;20036;-83
2023/05/17 05:56:26;;;;;;;13.18;2.03;;;8.90;99.90;;;;;;5013061;28;20535;-82
2023/05/17 05:58:53;;;;;;;23.33;2.42;;;8.50;99.90;;;;;;5033593;28;20088;-82
2023/05/17 06:01:19;;;;;;;12.77;2.30;;;9.10;99.90;;;;;;5041230;28;20075;-84
2023/05/17 06:03:44;;;;;;;16.38;2.38;;;8.50;99.90;;;;;;5056956;28;20025;-82
2023/05/17 06:06:10;;;;;;;17.73;2.85;;;8.50;99.90;;;;;;5059179;28;20047;-82
2023/05/17 06:08:36;;;;;;;13.30;2.20;;;8.50;99.90;;;;;;5070931;28;20093;-82
2023/05/17 06:11:02;;;;;;;15.57;2.42;;;9.70;99.90;;;;;;5056313;28;20041;-81
2023/05/17 06:13:27;;;;;;;14.95;2.00;;;8.60;99.90;;;;;;5067256;28;20120;-81
2023/05/17 06:15:53;;;;;;;14.13;2.10;;;8.60;99.90;;;;;;5031784;28;20532;-81
2023/05/17 06:18:19;;;;;;;18.13;2.70;;;8.60;99.90;;;;;;5048339;28;20468;-81
2023/05/17 06:20:45;;;;;;;13.82;2.90;;;8.60;99.90;;;;;;5046519;28;20048;-81
2023/05/17 06:23:11;;;;;;;16.38;2.58;;;8.60;99.90;;;;;;5024893;28;20041;-82
2023/05/17 06:25:36;;;;;;;19.17;2.38;;;9.20;99.90;;;;;;5035150;28;20037;-82
2023/05/17 06:28:03;;;;;;;14.00;2.63;;;8.70;99.90;;;;;;5029834;28;20095;-82
2023/05/17 06:30:29;;;;;;;18.25;2.78;;;8.70;99.90;;;;;;5024465;28;20502;-81
2023/05/17 06:32:55;;;;;;;16.15;2.70;;;8.70;99.90;;;;;;5041046;28;20049;-82
2023/05/17 06:35:20;;;;;;;20.85;2.30;;;8.70;99.90;;;;;;5029424;28;20484;-82
2023/05/17 06:37:46;;;;;;;14.00;2.00;;;9.40;99.90;;;;;;5037989;28;20041;-82
2023/05/17 06:40:12;;;;;;;15.43;2.20;;;8.80;99.90;;;;;;5037826;28;20051;-81
2023/05/17 06:42:38;;;;;;;21.08;2.00;;;9.00;99.90;;;;;;5047423;28;20044;-80
2023/05/17 06:45:04;;;;;;;11.68;2.47;;;8.80;99.90;;;;;;5046262;28;20550;-81
2023/05/17 06:47:29;;;;;;;13.00;2.13;;;9.00;99.90;;;;;;5047038;28;20036;-81
2023/05/17 06:49:55;;;;;;;13.95;2.08;;;9.00;99.90;;;;;;5030274;28;20041;-81
2023/05/17 06:52:21;;;;;;;16.75;2.05;;;9.00;99.90;;;;;;5027489;28;20049;-81
2023/05/17 06:54:47;;;;;;;16.23;2.47;;;9.10;99.90;;;;;;5046973;28;20047;-83
2023/05/17 06:57:12;;;;;;;17.92;2.22;;;9.10;99.90;;;;;;5046033;28;20049;-82
2023/05/17 06:59:38;;;;;;;17.15;2.35;;;9.20;99.90;;;;;;5045926;28;20067;-85
2023/05/17 07:02:04;;;;;;;13.27;2.50;;;9.20;99.90;;;;;;5030778;28;20045;-82
2023/05/17 07:04:30;;;;;;;13.85;1.88;;;9.30;99.90;;;;;;5030593;28;20118;-81
2023/05/17 07:06:56;;;;;;;16.60;2.38;;;9.30;99.90;;;;;;5045610;28;20099;-82
2023/05/17 07:09:21;;;;;;;15.13;2.63;;;9.30;99.90;;;;;;5050677;28;20545;-80
2023/05/17 07:11:47;;;;;;;14.50;2.30;;;9.30;99.90;;;;;;5029270;28;20053;-80
2023/05/17 07:14:13;;;;;;;16.67;2.83;;;9.30;99.90;;;;;;5044841;28;20136;-80
2023/05/17 07:16:39;;;;;;;25.20;2.92;;;9.50;99.90;;;;;;5044865;28;20135;-81
2023/05/17 07:19:05;;;;;;;20.00;2.75;;;9.30;99.90;;;;;;5048765;28;20045;-80
2023/05/17 07:21:32;;;;;;;17.42;2.97;;;9.20;99.90;;;;;;5047647;28;20473;-80
2023/05/17 07:23:57;;;;;;;20.73;2.90;;;9.30;99.90;;;;;;5046057;28;20045;-82
2023/05/17 07:26:23;;;;;;;18.95;2.75;;;9.30;99.90;;;;;;5041207;28;20052;-81
2023/05/17 07:28:49;;;;;;;14.40;2.33;;;9.40;99.90;;;;;;5045294;28;20110;-81
2023/05/17 07:31:18;;;;;;;14.18;2.35;;;9.40;99.90;;;;;;5056603;28;20049;-82
2023/05/17 07:33:43;;;;;;;15.00;3.08;;;9.30;99.90;;;;;;5047210;28;20378;-82
2023/05/17 07:36:09;;;;;;;12.65;1.95;;;9.30;99.90;;;;;;5035487;28;20055;-82
2023/05/17 07:38:35;;;;;;;16.92;2.40;;;9.40;99.90;;;;;;5036220;28;20433;-82
2023/05/17 07:41:01;;;;;;;13.05;2.35;;;9.30;99.90;;;;;;5042899;28;20468;-81
2023/05/17 07:43:27;;;;;;;12.38;2.35;;;9.40;99.90;;;;;;5046548;28;20441;-82
2023/05/17 07:45:53;;;;;;;11.98;1.77;;;9.40;99.90;;;;;;5039918;28;20036;-82
2023/05/17 07:48:19;;;;;;;13.93;2.00;;;9.50;99.90;;;;;;5045039;28;20567;-81
2023/05/17 07:50:45;;;;;;;15.90;1.90;;;9.50;99.90;;;;;;5029135;28;20052;-81
2023/05/17 07:53:11;;;;;;;13.43;2.40;;;9.60;99.90;;;;;;5046137;28;20127;-81
2023/05/17 07:55:37;;;;;;;12.38;2.15;;;9.60;99.90;;;;;;5046232;28;20508;-81
2023/05/17 07:58:03;;;;;;;13.02;2.08;;;9.70;99.90;;;;;;5045776;28;20041;-81
2023/05/17 08:00:28;;;;;;;21.17;2.70;;;9.80;99.90;;;;;;5047559;28;20119;-81
2023/05/17 08:02:56;;;;;;;18.83;2.33;;;9.80;99.90;;;;;;5044210;28;20041;-83
2023/05/17 08:05:21;;;;;;;19.23;2.38;;;9.90;99.90;;;;;;5046774;28;20585;-84
2023/05/17 08:07:47;;;;;;;14.55;2.08;;;9.80;99.90;;;;;;5044759;28;20079;-81
2023/05/17 08:10:13;;;;;;;13.90;1.95;;;9.80;99.90;;;;;;5046800;28;20043;-81
2023/05/17 08:12:39;;;;;;;15.55;2.35;;;9.80;99.90;;;;;;5045545;28;20037;-81
2023/05/17 08:15:06;;;;;;;16.25;2.72;;;9.80;99.90;;;;;;5045282;28;20528;-82
2023/05/17 08:20:28;;;;;;;20.23;2.20;;;9.70;99.90;;;;;;5079703;22;20040;-71
2023/05/17 08:22:55;;;;;;;15.52;1.85;;;9.80;99.90;;;;;;5001729;28;20065;-72
2023/05/17 08:25:20;;;;;;;15.02;2.30;;;9.70;99.90;;;;;;5004684;28;20045;-71
2023/05/17 08:27:46;;;;;;;18.25;2.58;;;9.80;99.90;;;;;;5004434;28;20037;-72
2023/05/17 08:30:13;;;;;;;14.90;2.28;;;9.80;99.90;;;;;;5002736;28;20059;-72
2023/05/17 08:32:38;;;;;;;13.00;2.55;;;9.90;99.90;;;;;;5004671;28;20065;-71
2023/05/17 08:35:04;;;;;;;15.40;2.67;;;9.80;99.90;;;;;;4989878;28;20184;-71
2023/05/17 08:37:30;;;;;;;15.68;2.45;;;9.90;99.90;;;;;;5002901;28;20051;-71
2023/05/17 08:39:55;;;;;;;20.52;2.35;;;9.90;99.90;;;;;;4988067;28;20386;-72
2023/05/17 08:42:25;;;;;;;13.70;1.85;;;9.90;99.90;;;;;;5003384;28;20122;-71
2023/05/17 08:44:52;;;;;;;14.15;2.28;;;9.90;99.90;;;;;;5003989;28;20048;-71
2023/05/17 08:47:28;;;;;;;15.57;2.33;;;10.00;99.90;;;;;;5005253;28;20041;-72
2023/05/17 08:50:03;;;;;;;15.45;2.05;;;10.10;99.90;;;;;;5004213;28;20049;-72
2023/05/17 08:52:31;;;;;;;9.60;1.90;;;10.20;99.90;;;;;;4989052;28;20052;-72
2023/05/17 08:55:06;;;;;;;11.32;1.85;;;10.40;99.90;;;;;;5003430;28;20042;-72
2023/05/17 08:57:34;;;;;;;10.98;2.03;;;10.50;99.90;;;;;;5002151;28;20597;-72
2023/05/17 09:00:03;;;;;;;11.80;1.73;;;10.60;99.90;;;;;;5000860;28;20449;-72
2023/05/17 09:02:30;;;;;;;13.82;2.33;;;10.60;99.90;;;;;;5000413;28;20056;-72
2023/05/17 09:04:56;;;;;;;11.23;1.70;;;10.70;99.90;;;;;;5003762;28;20042;-72
2023/05/17 09:07:22;;;;;;;13.52;2.15;;;10.70;99.90;;;;;;5002419;28;20042;-73
2023/05/17 09:09:54;;;;;;;16.85;2.95;;;10.70;99.90;;;;;;5002481;28;20593;-73
2023/05/17 09:12:20;;;;;;;14.05;2.47;;;10.70;99.90;;;;;;5001669;28;20111;-73
2023/05/17 09:14:49;;;;;;;16.73;2.28;;;10.70;99.90;;;;;;5004332;28;20541;-72
2023/05/17 09:17:19;;;;;;;13.60;1.92;;;10.60;99.90;;;;;;5003545;28;20052;-71
2023/05/17 09:19:46;;;;;;;12.27;1.90;;;10.60;99.90;;;;;;5000102;28;20041;-71
2023/05/17 09:22:19;;;;;;;12.43;2.03;;;10.50;99.90;;;;;;4997839;28;20054;-73
2023/05/17 09:24:45;;;;;;;10.93;2.13;;;10.50;99.90;;;;;;5003041;28;20145;-72
2023/05/17 09:27:16;;;;;;;8.70;1.73;;;10.40;99.90;;;;;;5002234;28;20052;-72
2023/05/17 09:29:45;;;;;;;12.25;1.60;;;10.40;99.90;;;;;;5002879;28;20499;-74
2023/05/17 09:32:19;;;;;;;13.38;1.77;;;10.50;99.90;;;;;;5000083;28;20376;-72
2023/05/17 09:34:47;;;;;;;12.15;1.70;;;10.50;99.90;;;;;;5000649;28;20042;-73
2023/05/17 09:37:15;;;;;;;12.90;1.58;;;10.60;99.90;;;;;;4997661;28;20042;-73
2023/05/17 09:39:41;;;;;;;9.40;1.60;;;10.60;99.90;;;;;;5007272;28;20040;-73
2023/05/17 09:42:08;;;;;;;9.70;1.80;;;10.70;99.90;;;;;;5007476;28;20089;-73
2023/05/17 09:44:49;;;;;;;10.75;2.08;;;10.70;99.90;;;;;;5007064;28;20046;-73
2023/05/17 09:47:36;;;;;;;10.45;1.77;;;10.80;99.90;;;;;;5007217;28;20038;-72
2023/05/17 09:50:02;;;;;;;14.15;2.25;;;10.90;99.90;;;;;;5023514;28;20410;-73
2023/05/17 09:52:30;;;;;;;11.45;1.85;;;10.90;99.90;;;;;;4988794;28;20456;-73
2023/05/17 09:54:59;;;;;;;8.30;1.65;;;10.90;99.90;;;;;;4988065;28;20180;-73
2023/05/17 09:57:35;;;;;;;12.10;1.85;;;11.00;99.90;;;;;;4999480;28;20053;-73
2023/05/17 10:00:02;;;;;;;12.02;1.92;;;10.90;99.90;;;;;;5001709;28;20037;-72
2023/05/17 10:02:31;;;;;;;12.68;2.03;;;10.90;99.90;;;;;;5002911;28;20423;-71
2023/05/17 10:04:57;;;;;;;13.43;1.63;;;10.90;99.90;;;;;;5001690;28;20049;-72
2023/05/17 10:07:25;;;;;;;13.98;1.90;;;10.90;99.90;;;;;;4990934;28;20081;-73
2023/05/17 10:09:54;;;;;;;13.85;2.50;;;10.90;99.90;;;;;;4987942;28;20054;-73
2023/05/17 10:12:28;;;;;;;11.30;1.63;;;10.90;99.90;;;;;;4998459;28;20049;-72
2023/05/17 10:14:55;;;;;;;9.40;1.80;;;11.00;99.90;;;;;;5005843;28;20846;-72
2023/05/17 10:17:22;;;;;;;16.92;1.98;;;11.00;99.90;;;;;;4999793;28;20046;-71
2023/05/17 10:19:49;;;;;;;9.55;1.73;;;11.40;99.90;;;;;;5002795;28;20128;-72
2023/05/17 10:22:15;;;;;;;10.98;1.67;;;11.20;99.90;;;;;;5006088;28;20073;-71
2023/05/17 10:24:43;;;;;;;8.20;2.13;;;11.20;99.90;;;;;;5007834;28;20127;-71
2023/05/17 10:27:10;;;;;;;14.13;2.20;;;11.20;99.90;;;;;;4992682;28;20132;-78
2023/05/17 10:29:37;;;;;;;12.98;1.95;;;11.20;99.90;;;;;;5013602;28;20042;-76
2023/05/17 10:32:06;;;;;;;9.57;1.80;;;11.20;99.90;;;;;;5009366;28;20057;-76
2023/05/17 10:34:34;;;;;;;10.15;1.58;;;11.20;99.90;;;;;;5006816;28;20472;-76
2023/05/17 10:37:01;;;;;;;18.30;2.08;;;11.20;99.90;;;;;;5003501;28;20046;-77
2023/05/17 10:39:26;;;;;;;7.03;1.52;;;11.30;99.90;;;;;;5007880;28;20561;-75
2023/05/17 10:41:55;;;;;;;8.70;1.50;;;11.40;99.90;;;;;;5002902;28;20050;-76
2023/05/17 10:44:21;;;;;;;10.60;1.73;;;11.40;99.90;;;;;;5010344;28;20049;-77
2023/05/17 10:46:54;;;;;;;9.95;1.90;;;11.40;99.90;;;;;;5004794;28;20042;-77
2023/05/17 10:49:25;;;;;;;11.25;1.90;;;11.40;99.90;;;;;;5011687;28;20064;-76
2023/05/17 10:51:51;;;;;;;10.57;2.08;;;11.40;99.90;;;;;;5005950;28;20046;-77
2023/05/17 10:54:17;;;;;;;13.13;2.13;;;11.40;99.90;;;;;;5006711;28;20053;-75
2023/05/17 10:56:51;;;;;;;16.75;2.20;;;11.40;99.90;;;;;;4997049;28;20133;-78
2023/05/17 10:59:23;;;;;;;12.00;2.13;;;11.40;99.90;;;;;;5007272;28;20049;-77
2023/05/17 11:02:05;;;;;;;10.70;1.60;;;11.50;99.90;;;;;;4998402;28;20049;-72
2023/05/17 11:04:35;;;;;;;16.63;2.10;;;11.60;99.90;;;;;;5004656;28;20041;-72
2023/05/17 11:07:16;;;;;;;11.13;1.98;;;11.70;99.90;;;;;;4989209;28;20041;-71
2023/05/17 11:09:48;;;;;;;10.77;1.75;;;11.60;99.90;;;;;;5005454;28;20057;-71
2023/05/17 11:12:15;;;;;;;12.00;2.15;;;11.60;99.90;;;;;;5007782;28;20046;-73
2023/05/17 11:14:44;;;;;;;15.32;2.10;;;11.60;99.90;;;;;;5007264;28;20050;-72
2023/05/17 11:17:14;;;;;;;12.98;2.70;;;11.60;99.90;;;;;;4987353;28;20426;-73
2023/05/17 11:20:09;;;;;;;13.70;2.17;;;11.70;99.90;;;;;;5000904;28;20088;-72
2023/05/17 11:22:38;;;;;;;11.43;2.28;;;11.70;99.90;;;;;;5003934;28;20058;-72
2023/05/17 11:25:09;;;;;;;13.02;2.00;;;11.70;99.90;;;;;;5001820;28;20038;-72
2023/05/17 11:27:53;;;;;;;12.30;2.10;;;11.70;99.90;;;;;;5004652;28;20116;-74
2023/05/17 11:30:25;;;;;;;13.23;2.08;;;11.60;99.90;;;;;;4988681;28;20045;-73
2023/05/17 11:33:03;;;;;;;12.93;2.15;;;11.70;99.90;;;;;;4987023;28;20054;-72
2023/05/17 11:35:36;;;;;;;17.25;1.95;;;11.70;99.90;;;;;;5020631;28;20038;-72
2023/05/17 11:38:20;;;;;;;12.05;2.15;;;11.70;99.90;;;;;;5003212;28;20089;-72
2023/05/17 11:40:48;;;;;;;8.98;1.50;;;11.60;99.90;;;;;;5005401;28;20452;-72
2023/05/17 11:43:16;;;;;;;9.05;1.63;;;11.60;99.90;;;;;;4998467;28;20097;-72
2023/05/17 11:45:50;;;;;;;9.80;1.83;;;11.60;99.90;;;;;;4997419;28;20060;-73
2023/05/17 11:48:18;;;;;;;10.07;1.60;;;11.60;99.90;;;;;;5001942;28;20046;-73
2023/05/17 11:50:45;;;;;;;6.20;1.58;;;11.40;99.90;;;;;;5001203;28;20042;-72
2023/05/17 11:53:12;;;;;;;9.63;1.60;;;11.40;99.90;;;;;;5002525;28;20711;-71
2023/05/17 11:55:46;;;;;;;11.40;2.15;;;11.40;99.90;;;;;;4990496;28;20140;-73
2023/05/17 11:58:14;;;;;;;11.80;2.53;;;11.40;99.90;;;;;;4995800;28;21735;-73
2023/05/17 12:00:40;;;;;;;10.23;1.70;;;11.50;99.90;;;;;;4977770;28;20143;-72
2023/05/17 12:03:21;;;;;;;15.00;2.70;;;11.50;99.90;;;;;;5003653;28;20057;-79
2023/05/17 12:05:48;;;;;;;10.63;1.77;;;11.50;99.90;;;;;;4998213;28;20124;-78
2023/05/17 12:08:19;;;;;;;12.43;2.03;;;11.60;99.90;;;;;;4984218;28;20045;-77
2023/05/17 12:10:48;;;;;;;16.70;2.15;;;11.60;99.90;;;;;;5000364;28;20046;-77
2023/05/17 12:13:14;;;;;;;10.23;1.75;;;11.60;99.90;;;;;;4999783;28;20049;-77
2023/05/17 12:15:43;;;;;;;10.05;1.40;;;11.60;99.90;;;;;;5000207;28;20482;-78
2023/05/17 12:18:08;;;;;;;13.98;2.20;;;11.70;99.90;;;;;;5002936;28;20965;-77
2023/05/17 12:20:36;;;;;;;14.95;1.70;;;11.60;99.90;;;;;;5001510;28;20108;-76
2023/05/17 12:23:02;;;;;;;9.23;1.73;;;11.60;99.90;;;;;;5005721;28;20466;-80
2023/05/17 12:25:28;;;;;;;10.60;1.60;;;11.70;99.90;;;;;;4994289;28;20173;-78
2023/05/17 12:28:13;;;;;;;13.23;1.73;;;11.80;99.90;;;;;;4999508;28;20418;-77
2023/05/17 12:30:39;;;;;;;7.88;1.67;;;11.90;99.90;;;;;;4992697;28;20048;-76
2023/05/17 12:33:06;;;;;;;7.70;1.83;;;12.00;99.90;;;;;;4988996;28;20057;-75
2023/05/17 12:35:32;;;;;;;11.95;2.03;;;12.00;99.90;;;;;;4993147;28;20042;-76
2023/05/17 12:37:58;;;;;;;10.45;2.20;;;12.10;99.90;;;;;;4995812;28;20560;-76
2023/05/17 12:40:26;;;;;;;11.57;1.80;;;12.20;99.90;;;;;;4996713;28;20053;-74
2023/05/17 12:43:01;;;;;;;13.02;1.50;;;12.20;99.90;;;;;;4996288;28;20056;-76
2023/05/17 12:45:27;;;;;;;14.27;1.83;;;12.20;99.90;;;;;;5000945;28;20064;-75
2023/05/17 12:47:53;;;;;;;12.73;1.55;;;12.10;99.80;;;;;;4987839;28;20045;-76
2023/05/17 12:50:31;;;;;;;11.73;2.03;;;12.10;99.90;;;;;;4978130;28;20077;-77
2023/05/17 12:52:57;;;;;;;12.25;1.75;;;12.10;99.90;;;;;;4995686;28;20141;-77